Главная страница
METAR-TAF:

METAR-TAF

Аэропорты :

Лаппеэнранта, Финляндия

широта: 61-02-45N, долгота: 028-08-55E, высота над уровнем моря: 106 м

Текущие метеонаблюдения

Эта сводка был подготовлена 32 минут назад, в 19:20 UTC
Ветер 4 Узел от восточный, изменяющийся между восточно-северо-восточный и юго-восточный
Температура 0°C
Влажность 93%
Давление 1001 hPa
Видимость 10 км и более
Сплошная облачность на высоте 1500 фута

METAR: EFLP 191920Z AUTO 09004KT 060V140 9999 OVC015 00/M01 Q1001

Время: 21:52 (19:52 UTC)


TAF: отсутствует

Метеонаблюдения и прогнозы для более 4000 аэропортов (сводки METAR и TAF).

Имеющиеся станции представлены на карте желтыми и красными точками.

Чтобы увидеть название станции, наведите на нее мышь.

Затем щелкните, чтобы увидеть метеонаблюдения и метеопрогнозы.

Управление картой: чтобы увеличить масштаб, щелкните зеленые кнопки с черным крестиком; чтобы уменьшить масштаб, щелкните зеленую кнопку с тире; для просмотра соседних карт щелкайте зеленые стрелки.


METAR-TAF: